Time,TemperatureF,DewpointF,PressureIn,WindDirection,WindDirectionDegrees,WindSpeedMPH,WindSpeedGustMPH,Humidity,HourlyPrecipIn,Conditions,Clouds,dailyrainin,SoftwareType,DateUTC
2013-08-30 00:01:00,72.0,70.4,29.97,North,0,0.0,0.0,95,0.00,CLR,CLR,0.00,WeatherDisplay:10.37,2013-08-30 04:01:00,
2013-08-30 00:06:00,72.0,70.4,29.97,North,0,0.0,0.0,95,0.00,CLR,CLR,0.00,WeatherDisplay:10.37,2013-08-30 04:06:00,
2013-08-30 00:11:00,72.0,70.4,29.97,North,0,0.0,0.0,95,0.00,CLR,CLR,0.00,WeatherDisplay:10.37,2013-08-30 04:11:00,
2013-08-30 00:16:00,72.0,70.4,29.97,North,0,0.0,0.0,95,0.00,CLR,CLR,0.00,WeatherDisplay:10.37,2013-08-30 04:16:00,
2013-08-30 00:21:00,71.8,70.6,29.97,North,0,0.0,0.0,96,0.00,CLR,CLR,0.00,WeatherDisplay:10.37,2013-08-30 04:21:00,
2013-08-30 00:26:00,71.6,70.4,29.97,North,0,0.0,0.0,96,0.00,CLR,CLR,0.00,WeatherDisplay:10.37,2013-08-30 04:26:00,
2013-08-30 00:31:00,71.8,70.6,29.97,North,0,0.0,0.0,96,0.00,CLR,CLR,0.00,WeatherDisplay:10.37,2013-08-30 04:31:00,
2013-08-30 00:36:00,71.8,70.6,29.97,North,0,0.0,0.0,96,0.00,CLR,CLR,0.00,WeatherDisplay:10.37,2013-08-30 04:36:00,
2013-08-30 00:41:00,71.8,70.6,29.97,North,0,0.0,0.0,96,0.00,CLR,CLR,0.00,WeatherDisplay:10.37,2013-08-30 04:41:00,
2013-08-30 00:46:00,71.6,70.4,29.97,North,0,0.0,0.0,96,0.00,CLR,CLR,0.00,WeatherDisplay:10.37,2013-08-30 04:46:00,
2013-08-30 00:51:00,71.4,70.2,29.97,North,0,0.0,0.0,96,0.00,CLR,CLR,0.00,WeatherDisplay:10.37,2013-08-30 04:51:00,
2013-08-30 00:57:00,71.2,70.0,29.97,North,0,0.0,0.0,96,0.00,CLR,CLR,0.00,WeatherDisplay:10.37,2013-08-30 04:57:00,
2013-08-30 01:02:00,71.2,71.2,29.97,North,0,0.0,0.0,100,0.00,CLR,CLR,0.00,WeatherDisplay:10.37,2013-08-30 05:02:00,
2013-08-30 01:07:00,71.2,70.0,29.97,North,0,0.0,0.0,96,0.00,CLR,CLR,0.00,WeatherDisplay:10.37,2013-08-30 05:07:00,
2013-08-30 01:12:00,71.1,69.9,29.94,North,0,0.0,0.0,96,0.00,CLR,CLR,0.00,WeatherDisplay:10.37,2013-08-30 05:12:00,
2013-08-30 01:17:00,71.1,70.2,29.94,North,0,0.0,0.0,97,0.00,CLR,CLR,0.00,WeatherDisplay:10.37,2013-08-30 05:17:00,
2013-08-30 01:22:00,71.1,70.2,29.94,North,0,0.0,0.0,97,0.00,CLR,CLR,0.00,WeatherDisplay:10.37,2013-08-30 05:22:00,
2013-08-30 01:27:00,70.9,70.0,29.94,North,0,0.0,0.0,97,0.00,CLR,CLR,0.00,WeatherDisplay:10.37,2013-08-30 05:27:00,
2013-08-30 01:32:00,70.9,70.0,29.94,North,0,0.0,0.0,97,0.00,CLR,CLR,0.00,WeatherDisplay:10.37,2013-08-30 05:32:00,
2013-08-30 01:37:00,70.9,70.0,29.94,North,0,0.0,0.0,97,0.00,CLR,CLR,0.00,WeatherDisplay:10.37,2013-08-30 05:37:00,
2013-08-30 01:42:00,70.9,70.0,29.94,North,0,0.0,0.0,97,0.00,CLR,CLR,0.00,WeatherDisplay:10.37,2013-08-30 05:42:00,
2013-08-30 01:47:00,70.9,70.0,29.94,North,0,0.0,0.0,97,0.00,CLR,CLR,0.00,WeatherDisplay:10.37,2013-08-30 05:47:00,
2013-08-30 01:52:00,70.9,70.0,29.94,North,0,0.0,0.0,97,0.00,CLR,CLR,0.00,WeatherDisplay:10.37,2013-08-30 05:52:00,
2013-08-30 01:57:00,70.7,69.8,29.94,North,0,0.0,0.0,97,0.00,CLR,CLR,0.00,WeatherDisplay:10.37,2013-08-30 05:57:00,
2013-08-30 02:02:00,70.5,69.6,29.94,North,0,0.0,0.0,97,0.00,CLR,CLR,0.00,WeatherDisplay:10.37,2013-08-30 06:02:00,
2013-08-30 02:07:00,70.5,69.6,29.94,North,0,0.0,0.0,97,0.00,CLR,CLR,0.00,WeatherDisplay:10.37,2013-08-30 06:07:00,
2013-08-30 02:12:00,70.5,69.6,29.94,North,0,0.0,0.0,97,0.00,CLR,CLR,0.00,WeatherDisplay:10.37,2013-08-30 06:12:00,
2013-08-30 02:17:00,70.3,69.4,29.94,North,0,0.0,0.0,97,0.00,CLR,CLR,0.00,WeatherDisplay:10.37,2013-08-30 06:17:00,
2013-08-30 02:22:00,70.3,69.4,29.94,North,0,0.0,0.0,97,0.00,CLR,CLR,0.00,WeatherDisplay:10.37,2013-08-30 06:22:00,
2013-08-30 02:27:00,70.3,69.4,29.94,North,0,0.0,0.0,97,0.00,CLR,CLR,0.00,WeatherDisplay:10.37,2013-08-30 06:27:00,
2013-08-30 02:32:00,70.2,69.3,29.94,North,0,0.0,0.0,97,0.00,CLR,CLR,0.00,WeatherDisplay:10.37,2013-08-30 06:32:00,
2013-08-30 02:37:00,70.2,69.3,29.94,North,0,0.0,0.0,97,0.00,CLR,CLR,0.00,WeatherDisplay:10.37,2013-08-30 06:37:00,
2013-08-30 02:42:00,70.2,69.3,29.94,North,0,0.0,0.0,97,0.00,CLR,CLR,0.00,WeatherDisplay:10.37,2013-08-30 06:42:00,
2013-08-30 02:47:00,70.2,69.3,29.94,North,0,0.0,0.0,97,0.00,CLR,CLR,0.00,WeatherDisplay:10.37,2013-08-30 06:47:00,
2013-08-30 02:52:00,70.2,69.3,29.94,North,0,0.0,0.0,97,0.00,CLR,CLR,0.00,WeatherDisplay:10.37,2013-08-30 06:52:00,
2013-08-30 02:57:00,70.0,69.1,29.94,North,0,0.0,0.0,97,0.00,CLR,CLR,0.00,WeatherDisplay:10.37,2013-08-30 06:57:00,
2013-08-30 03:02:00,70.0,69.1,29.94,North,0,0.0,0.0,97,0.00,CLR,CLR,0.00,WeatherDisplay:10.37,2013-08-30 07:02:00,
2013-08-30 03:07:00,69.8,68.9,29.94,North,0,0.0,0.0,97,0.00,CLR,CLR,0.00,WeatherDisplay:10.37,2013-08-30 07:07:00,
2013-08-30 03:12:00,69.8,68.9,29.94,North,0,0.0,0.0,97,0.00,CLR,CLR,0.00,WeatherDisplay:10.37,2013-08-30 07:12:00,
2013-08-30 03:17:00,69.8,68.9,29.94,North,0,0.0,0.0,97,0.00,CLR,CLR,0.00,WeatherDisplay:10.37,2013-08-30 07:17:00,
2013-08-30 03:22:00,69.6,68.7,29.94,North,0,0.0,0.0,97,0.00,CLR,CLR,0.00,WeatherDisplay:10.37,2013-08-30 07:22:00,
2013-08-30 03:27:00,69.4,68.6,29.94,North,0,0.0,0.0,97,0.00,CLR,CLR,0.00,WeatherDisplay:10.37,2013-08-30 07:27:00,
2013-08-30 03:32:00,69.4,68.6,29.94,North,0,0.0,0.0,97,0.00,CLR,CLR,0.00,WeatherDisplay:10.37,2013-08-30 07:32:00,
2013-08-30 03:37:00,69.4,68.6,29.94,North,0,0.0,0.0,97,0.00,CLR,CLR,0.00,WeatherDisplay:10.37,2013-08-30 07:37:00,
2013-08-30 03:42:00,69.4,68.6,29.94,North,0,0.0,0.0,97,0.00,CLR,CLR,0.00,WeatherDisplay:10.37,2013-08-30 07:42:00,
2013-08-30 03:47:00,69.4,68.6,29.94,North,0,0.0,0.0,97,0.00,CLR,CLR,0.00,WeatherDisplay:10.37,2013-08-30 07:47:00,
2013-08-30 03:52:00,69.6,69.0,29.94,North,0,0.0,0.0,98,0.00,CLR,CLR,0.00,WeatherDisplay:10.37,2013-08-30 07:52:00,
2013-08-30 03:57:00,69.8,68.9,29.94,North,0,0.0,0.0,97,0.00,CLR,CLR,0.00,WeatherDisplay:10.37,2013-08-30 07:57:00,
2013-08-30 04:02:00,69.8,68.9,29.94,North,0,0.0,0.0,97,0.00,CLR,CLR,0.00,WeatherDisplay:10.37,2013-08-30 08:02:00,
2013-08-30 04:07:00,69.8,68.9,29.94,North,0,0.0,0.0,97,0.00,CLR,CLR,0.00,WeatherDisplay:10.37,2013-08-30 08:07:00,
2013-08-30 04:12:00,69.8,69.2,29.94,North,0,0.0,0.0,98,0.00,CLR,CLR,0.00,WeatherDisplay:10.37,2013-08-30 08:12:00,
2013-08-30 04:17:00,69.8,69.2,29.94,North,0,0.0,0.0,98,0.00,CLR,CLR,0.00,WeatherDisplay:10.37,2013-08-30 08:17:00,
2013-08-30 04:22:00,69.8,69.2,29.94,North,0,0.0,0.0,98,0.00,CLR,CLR,0.00,WeatherDisplay:10.37,2013-08-30 08:22:00,
2013-08-30 04:27:00,69.8,69.2,29.94,North,0,0.0,0.0,98,0.00,CLR,CLR,0.00,WeatherDisplay:10.37,2013-08-30 08:27:00,
2013-08-30 04:32:00,69.8,69.2,29.94,North,0,0.0,0.0,98,0.00,CLR,CLR,0.00,WeatherDisplay:10.37,2013-08-30 08:32:00,
2013-08-30 04:37:00,69.8,69.2,29.94,North,0,0.0,0.0,98,0.00,CLR,CLR,0.00,WeatherDisplay:10.37,2013-08-30 08:37:00,
2013-08-30 04:42:00,69.6,69.0,29.94,North,0,0.0,0.0,98,0.00,CLR,CLR,0.00,WeatherDisplay:10.37,2013-08-30 08:42:00,
2013-08-30 04:47:00,69.6,69.0,29.94,North,0,0.0,0.0,98,0.00,CLR,CLR,0.00,WeatherDisplay:10.37,2013-08-30 08:47:00,
2013-08-30 04:52:00,69.6,69.0,29.94,North,0,0.0,0.0,98,0.00,CLR,CLR,0.00,WeatherDisplay:10.37,2013-08-30 08:52:00,
2013-08-30 04:57:00,69.6,69.0,29.94,North,0,0.0,0.0,98,0.00,CLR,CLR,0.00,WeatherDisplay:10.37,2013-08-30 08:57:00,
2013-08-30 05:02:00,69.4,68.9,29.94,North,0,0.0,0.0,98,0.00,CLR,CLR,0.00,WeatherDisplay:10.37,2013-08-30 09:02:00,
2013-08-30 05:07:00,69.6,69.0,29.94,North,0,0.0,0.0,98,0.00,CLR,CLR,0.00,WeatherDisplay:10.37,2013-08-30 09:07:00,
2013-08-30 05:12:00,69.6,69.0,29.94,North,0,0.0,0.0,98,0.00,CLR,CLR,0.00,WeatherDisplay:10.37,2013-08-30 09:12:00,
2013-08-30 05:17:00,69.6,69.0,29.94,North,0,0.0,0.0,98,0.00,CLR,CLR,0.00,WeatherDisplay:10.37,2013-08-30 09:17:00,
2013-08-30 05:22:00,69.3,68.7,29.94,North,0,0.0,0.0,98,0.00,CLR,CLR,0.00,WeatherDisplay:10.37,2013-08-30 09:22:00,
2013-08-30 05:27:00,68.9,68.3,29.97,North,0,0.0,0.0,98,0.00,CLR,CLR,0.00,WeatherDisplay:10.37,2013-08-30 09:27:00,
2013-08-30 05:32:00,68.5,68.0,29.97,North,0,0.0,0.0,98,0.00,CLR,CLR,0.00,WeatherDisplay:10.37,2013-08-30 09:32:00,
2013-08-30 05:37:00,68.4,67.8,29.97,North,0,0.0,0.0,98,0.00,CLR,CLR,0.00,WeatherDisplay:10.37,2013-08-30 09:37:00,
2013-08-30 05:42:00,68.4,67.8,29.97,North,0,0.0,0.0,98,0.00,CLR,CLR,0.00,WeatherDisplay:10.37,2013-08-30 09:42:00,
2013-08-30 05:47:00,68.2,67.6,29.97,North,0,0.0,0.0,98,0.00,CLR,CLR,0.00,WeatherDisplay:10.37,2013-08-30 09:47:00,
2013-08-30 05:52:00,68.5,68.0,29.97,North,0,0.0,0.0,98,0.00,CLR,CLR,0.00,WeatherDisplay:10.37,2013-08-30 09:52:00,
2013-08-30 05:57:00,68.4,67.8,29.97,North,0,0.0,0.0,98,0.00,CLR,CLR,0.00,WeatherDisplay:10.37,2013-08-30 09:57:00,
2013-08-30 06:02:00,68.0,67.4,29.97,North,0,0.0,0.0,98,0.00,CLR,CLR,0.00,WeatherDisplay:10.37,2013-08-30 10:02:00,
2013-08-30 06:07:00,67.8,67.2,29.97,North,0,0.0,0.0,98,0.00,CLR,CLR,0.00,WeatherDisplay:10.37,2013-08-30 10:07:00,
2013-08-30 06:12:00,67.6,67.1,29.97,North,0,0.0,0.0,98,0.00,CLR,CLR,0.00,WeatherDisplay:10.37,2013-08-30 10:12:00,
2013-08-30 06:17:00,67.8,67.2,29.97,North,0,0.0,0.0,98,0.00,CLR,CLR,0.00,WeatherDisplay:10.37,2013-08-30 10:17:00,
2013-08-30 06:22:00,67.6,67.1,29.97,North,0,0.0,0.0,98,0.00,CLR,CLR,0.00,WeatherDisplay:10.37,2013-08-30 10:22:00,
2013-08-30 06:27:00,67.6,67.1,29.97,North,0,0.0,0.0,98,0.00,CLR,CLR,0.00,WeatherDisplay:10.37,2013-08-30 10:27:00,
2013-08-30 06:32:00,67.5,66.9,29.97,North,0,0.0,0.0,98,0.00,CLR,CLR,0.00,WeatherDisplay:10.37,2013-08-30 10:32:00,
2013-08-30 06:37:00,67.3,66.7,29.97,North,0,0.0,0.0,98,0.00,CLR,CLR,0.00,WeatherDisplay:10.37,2013-08-30 10:37:00,
2013-08-30 06:42:00,66.9,66.3,29.97,North,0,0.0,0.0,98,0.00,CLR,CLR,0.00,WeatherDisplay:10.37,2013-08-30 10:42:00,
2013-08-30 06:47:00,67.1,66.5,29.97,North,0,0.0,0.0,98,0.00,CLR,CLR,0.00,WeatherDisplay:10.37,2013-08-30 10:47:00,
2013-08-30 06:52:00,67.5,66.9,29.97,North,0,0.0,0.0,98,0.00,CLR,CLR,0.00,WeatherDisplay:10.37,2013-08-30 10:52:00,
2013-08-30 06:57:00,67.6,67.1,29.97,North,0,0.0,0.0,98,0.00,CLR,CLR,0.00,WeatherDisplay:10.37,2013-08-30 10:57:00,
2013-08-30 07:02:00,68.0,67.4,29.97,North,0,0.0,0.0,98,0.00,CLR,CLR,0.00,WeatherDisplay:10.37,2013-08-30 11:02:00,
2013-08-30 07:07:00,68.4,67.8,29.97,North,0,0.0,0.0,98,0.00,CLR,CLR,0.00,WeatherDisplay:10.37,2013-08-30 11:07:00,
2013-08-30 07:12:00,68.7,68.1,30.00,North,0,0.0,0.0,98,0.00,CLR,CLR,0.00,WeatherDisplay:10.37,2013-08-30 11:12:00,
2013-08-30 07:17:00,68.9,68.3,30.00,North,0,0.0,0.0,98,0.00,CLR,CLR,0.00,WeatherDisplay:10.37,2013-08-30 11:17:00,
2013-08-30 07:22:00,69.3,68.7,30.00,North,0,0.0,0.0,98,0.00,CLR,CLR,0.00,WeatherDisplay:10.37,2013-08-30 11:22:00,
2013-08-30 07:27:00,69.6,69.0,30.00,North,0,0.0,0.0,98,0.00,CLR,CLR,0.00,WeatherDisplay:10.37,2013-08-30 11:27:00,
2013-08-30 07:32:00,70.0,69.4,30.00,North,0,0.0,0.0,98,0.00,CLR,CLR,0.00,WeatherDisplay:10.37,2013-08-30 11:32:00,
2013-08-30 07:37:00,70.2,69.6,30.00,North,0,0.0,0.0,98,0.00,CLR,CLR,0.00,WeatherDisplay:10.37,2013-08-30 11:37:00,
2013-08-30 07:42:00,70.5,69.9,29.97,North,0,0.0,0.0,98,0.00,CLR,CLR,0.00,WeatherDisplay:10.37,2013-08-30 11:42:00,
2013-08-30 07:47:00,70.7,70.1,29.97,North,0,0.0,0.0,98,0.00,CLR,CLR,0.00,WeatherDisplay:10.37,2013-08-30 11:47:00,
2013-08-30 07:52:00,70.9,70.3,29.97,North,0,0.0,0.0,98,0.00,CLR,CLR,0.00,WeatherDisplay:10.37,2013-08-30 11:52:00,
2013-08-30 07:57:00,71.2,70.6,29.97,North,0,0.0,0.0,98,0.00,CLR,CLR,0.00,WeatherDisplay:10.37,2013-08-30 11:57:00,
2013-08-30 08:02:00,71.4,70.8,29.97,North,0,0.0,0.0,98,0.00,CLR,CLR,0.00,WeatherDisplay:10.37,2013-08-30 12:02:00,
2013-08-30 08:07:00,71.8,71.2,29.97,North,0,0.0,0.0,98,0.00,CLR,CLR,0.00,WeatherDisplay:10.37,2013-08-30 12:07:00,
2013-08-30 08:12:00,72.1,71.5,30.00,North,0,0.0,0.0,98,0.00,CLR,CLR,0.00,WeatherDisplay:10.37,2013-08-30 12:12:00,
2013-08-30 08:17:00,72.3,71.7,30.00,North,0,0.0,0.0,98,0.00,CLR,CLR,0.00,WeatherDisplay:10.37,2013-08-30 12:17:00,
2013-08-30 08:22:00,72.7,71.8,30.00,North,0,0.0,0.0,97,0.00,CLR,CLR,0.00,WeatherDisplay:10.37,2013-08-30 12:22:00,
2013-08-30 08:27:00,73.0,72.1,30.00,North,0,0.0,0.0,97,0.00,CLR,CLR,0.00,WeatherDisplay:10.37,2013-08-30 12:27:00,
2013-08-30 08:32:00,73.4,72.5,30.00,North,0,0.0,0.0,97,0.00,CLR,CLR,0.00,WeatherDisplay:10.37,2013-08-30 12:32:00,
2013-08-30 08:37:00,73.9,72.7,30.00,North,0,0.0,0.0,96,0.00,CLR,CLR,0.00,WeatherDisplay:10.37,2013-08-30 12:37:00,
2013-08-30 08:42:00,74.3,72.8,30.00,North,0,0.0,0.0,95,0.00,CLR,CLR,0.00,WeatherDisplay:10.37,2013-08-30 12:42:00,
2013-08-30 08:47:00,74.8,73.3,30.00,North,0,0.0,0.0,95,0.00,CLR,CLR,0.00,WeatherDisplay:10.37,2013-08-30 12:47:00,
2013-08-30 08:52:00,75.7,73.9,30.00,North,0,0.0,0.0,94,0.00,CLR,CLR,0.00,WeatherDisplay:10.37,2013-08-30 12:52:00,
2013-08-30 08:57:00,75.9,73.4,30.00,North,0,0.0,0.0,92,0.00,CLR,CLR,0.00,WeatherDisplay:10.37,2013-08-30 12:57:00,
2013-08-30 09:02:00,76.3,73.5,30.00,North,0,0.0,0.0,91,0.00,CLR,CLR,0.00,WeatherDisplay:10.37,2013-08-30 13:02:00,
2013-08-30 09:07:00,77.0,73.5,30.00,North,0,0.0,0.0,89,0.00,CLR,CLR,0.00,WeatherDisplay:10.37,2013-08-30 13:07:00,
2013-08-30 09:12:00,77.5,74.0,30.00,North,0,0.0,0.0,89,0.00,CLR,CLR,0.00,WeatherDisplay:10.37,2013-08-30 13:12:00,
2013-08-30 09:17:00,77.9,73.4,30.00,North,0,0.0,0.0,86,0.00,CLR,CLR,0.00,WeatherDisplay:10.37,2013-08-30 13:17:00,
2013-08-30 09:22:00,78.1,72.5,30.00,North,0,0.0,0.0,83,0.00,CLR,CLR,0.00,WeatherDisplay:10.37,2013-08-30 13:22:00,
2013-08-30 09:27:00,78.4,72.5,30.00,North,0,0.0,0.0,82,0.00,CLR,CLR,0.00,WeatherDisplay:10.37,2013-08-30 13:27:00,
2013-08-30 09:32:00,78.6,72.3,30.00,North,0,0.0,0.0,81,0.00,CLR,CLR,0.00,WeatherDisplay:10.37,2013-08-30 13:32:00,
2013-08-30 09:37:00,78.3,71.2,30.00,North,0,0.0,0.0,79,0.00,CLR,CLR,0.00,WeatherDisplay:10.37,2013-08-30 13:37:00,
2013-08-30 09:42:00,79.0,71.2,30.00,North,0,0.0,0.0,77,0.00,CLR,CLR,0.00,WeatherDisplay:10.37,2013-08-30 13:42:00,
2013-08-30 09:47:00,79.3,71.5,30.00,North,0,0.0,0.0,77,0.00,CLR,CLR,0.00,WeatherDisplay:10.37,2013-08-30 13:47:00,
2013-08-30 09:52:00,79.5,71.7,30.00,North,0,0.0,0.0,77,0.00,CLR,CLR,0.00,WeatherDisplay:10.37,2013-08-30 13:52:00,
2013-08-30 09:57:00,79.3,71.5,30.00,North,0,0.0,0.0,77,0.00,CLR,CLR,0.00,WeatherDisplay:10.37,2013-08-30 13:57:00,
2013-08-30 10:02:00,79.9,72.0,30.00,North,0,0.0,0.0,77,0.00,CLR,CLR,0.00,WeatherDisplay:10.37,2013-08-30 14:02:00,
2013-08-30 10:07:00,79.3,71.5,30.00,North,0,0.0,0.0,77,0.00,CLR,CLR,0.00,WeatherDisplay:10.37,2013-08-30 14:07:00,
2013-08-30 10:12:00,79.7,71.5,30.00,North,0,0.0,0.0,76,0.00,CLR,CLR,0.00,WeatherDisplay:10.37,2013-08-30 14:12:00,
2013-08-30 10:17:00,79.3,71.5,30.00,North,0,0.0,0.0,77,0.00,CLR,CLR,0.00,WeatherDisplay:10.37,2013-08-30 14:17:00,
2013-08-30 10:22:00,79.9,72.4,30.00,North,0,0.0,0.0,78,0.00,CLR,CLR,0.00,WeatherDisplay:10.37,2013-08-30 14:22:00,
2013-08-30 10:28:00,79.2,72.1,30.00,North,0,0.0,0.0,79,0.00,CLR,CLR,0.00,WeatherDisplay:10.37,2013-08-30 14:28:00,
2013-08-30 10:33:00,79.9,72.0,30.00,North,0,0.0,0.0,77,0.00,CLR,CLR,0.00,WeatherDisplay:10.37,2013-08-30 14:33:00,
2013-08-30 10:38:00,79.9,71.2,30.00,North,0,0.0,0.0,75,0.00,CLR,CLR,0.00,WeatherDisplay:10.37,2013-08-30 14:38:00,
2013-08-30 10:43:00,80.4,72.9,30.03,North,0,0.0,0.0,78,0.00,CLR,CLR,0.00,WeatherDisplay:10.37,2013-08-30 14:43:00,
2013-08-30 10:48:00,80.8,72.1,30.03,North,0,0.0,0.0,75,0.00,CLR,CLR,0.00,WeatherDisplay:10.37,2013-08-30 14:48:00,
2013-08-30 10:53:00,79.9,71.6,30.03,North,0,0.0,0.0,76,0.00,CLR,CLR,0.00,WeatherDisplay:10.37,2013-08-30 14:53:00,
2013-08-30 10:58:00,80.4,72.5,30.03,North,0,0.0,0.0,77,0.00,CLR,CLR,0.00,WeatherDisplay:10.37,2013-08-30 14:58:00,
2013-08-30 11:03:00,80.6,71.1,30.03,North,0,0.0,0.0,73,0.00,CLR,CLR,0.00,WeatherDisplay:10.37,2013-08-30 15:03:00,
2013-08-30 11:08:00,81.3,72.6,30.03,North,0,0.0,0.0,75,0.00,CLR,CLR,0.00,WeatherDisplay:10.37,2013-08-30 15:08:00,
2013-08-30 11:13:00,81.1,70.8,30.00,North,0,0.0,0.0,71,0.00,CLR,CLR,0.00,WeatherDisplay:10.37,2013-08-30 15:13:00,
2013-08-30 11:18:00,80.2,70.8,30.00,North,0,0.0,0.0,73,0.00,CLR,CLR,0.00,WeatherDisplay:10.37,2013-08-30 15:18:00,
2013-08-30 11:23:00,80.4,71.0,30.00,North,0,0.0,0.0,73,0.00,CLR,CLR,0.00,WeatherDisplay:10.37,2013-08-30 15:23:00,
2013-08-30 11:28:00,80.2,71.2,30.00,North,0,0.0,0.0,74,0.00,CLR,CLR,0.00,WeatherDisplay:10.37,2013-08-30 15:28:00,
2013-08-30 11:33:00,80.2,70.4,30.00,North,0,0.0,0.0,72,0.00,CLR,CLR,0.00,WeatherDisplay:10.37,2013-08-30 15:33:00,
2013-08-30 11:38:00,80.6,70.7,30.00,North,0,0.0,0.0,72,0.00,CLR,CLR,0.00,WeatherDisplay:10.37,2013-08-30 15:38:00,
2013-08-30 11:43:00,80.4,69.7,30.00,North,0,0.0,0.0,70,0.00,CLR,CLR,0.00,WeatherDisplay:10.37,2013-08-30 15:43:00,
2013-08-30 11:48:00,81.3,69.7,30.00,North,0,0.0,0.0,68,0.00,CLR,CLR,0.00,WeatherDisplay:10.37,2013-08-30 15:48:00,
2013-08-30 11:53:00,82.2,71.0,30.00,North,0,0.0,0.0,69,0.00,CLR,CLR,0.00,WeatherDisplay:10.37,2013-08-30 15:53:00,
2013-08-30 11:58:00,82.0,70.0,30.00,North,0,0.0,0.0,67,0.00,CLR,CLR,0.00,WeatherDisplay:10.37,2013-08-30 15:58:00,
2013-08-30 12:03:00,81.5,69.0,30.00,North,0,0.0,0.0,66,0.00,CLR,CLR,0.00,WeatherDisplay:10.37,2013-08-30 16:03:00,
2013-08-30 12:08:00,81.9,68.9,30.00,North,0,0.0,0.0,65,0.00,CLR,CLR,0.00,WeatherDisplay:10.37,2013-08-30 16:08:00,
2013-08-30 12:13:00,81.3,69.7,30.00,North,0,0.0,0.0,68,0.00,CLR,CLR,0.00,WeatherDisplay:10.37,2013-08-30 16:13:00,
2013-08-30 12:18:00,82.4,69.9,30.00,North,0,0.0,0.0,66,0.00,CLR,CLR,0.00,WeatherDisplay:10.37,2013-08-30 16:18:00,
2013-08-30 12:23:00,82.9,70.9,30.00,North,0,0.0,0.0,67,0.00,CLR,CLR,0.00,WeatherDisplay:10.37,2013-08-30 16:23:00,
2013-08-30 12:28:00,81.9,70.3,30.00,North,0,0.0,0.0,68,0.00,CLR,CLR,0.00,WeatherDisplay:10.37,2013-08-30 16:28:00,
2013-08-30 12:33:00,83.1,71.9,30.00,North,0,0.0,0.0,69,0.00,CLR,CLR,0.00,WeatherDisplay:10.37,2013-08-30 16:33:00,
2013-08-30 12:38:00,82.6,71.4,30.00,North,0,0.0,0.0,69,0.00,CLR,CLR,0.00,WeatherDisplay:10.37,2013-08-30 16:38:00,
2013-08-30 12:43:00,81.9,71.1,30.00,North,0,0.0,0.0,70,0.00,CLR,CLR,0.00,WeatherDisplay:10.37,2013-08-30 16:43:00,
2013-08-30 12:48:00,81.5,71.2,30.00,North,0,0.0,0.0,71,0.00,CLR,CLR,0.00,WeatherDisplay:10.37,2013-08-30 16:48:00,
2013-08-30 12:53:00,83.5,73.1,30.00,North,0,0.0,0.0,71,0.00,CLR,CLR,0.00,WeatherDisplay:10.37,2013-08-30 16:53:00,
2013-08-30 12:58:00,84.0,73.6,29.97,North,0,0.0,0.0,71,0.00,CLR,CLR,0.00,WeatherDisplay:10.37,2013-08-30 16:58:00,
2013-08-30 13:03:00,84.0,72.3,29.97,North,0,0.0,0.0,68,0.00,CLR,CLR,0.00,WeatherDisplay:10.37,2013-08-30 17:03:00,
2013-08-30 13:08:00,84.7,74.3,29.97,North,0,0.0,0.0,71,0.00,CLR,CLR,0.00,WeatherDisplay:10.37,2013-08-30 17:08:00,
2013-08-30 13:13:00,84.4,73.9,30.00,North,0,0.0,0.0,71,0.00,CLR,CLR,0.00,WeatherDisplay:10.37,2013-08-30 17:13:00,
2013-08-30 13:18:00,84.9,74.5,30.00,North,0,0.0,0.0,71,0.00,CLR,CLR,0.00,WeatherDisplay:10.37,2013-08-30 17:18:00,
2013-08-30 13:23:00,85.5,75.0,30.00,North,0,0.0,0.0,71,0.00,CLR,CLR,0.00,WeatherDisplay:10.37,2013-08-30 17:23:00,
2013-08-30 13:28:00,86.0,75.1,30.00,North,0,0.0,0.0,70,0.00,CLR,CLR,0.00,WeatherDisplay:10.37,2013-08-30 17:28:00,
2013-08-30 13:33:00,84.7,74.3,30.00,North,0,0.0,0.0,71,0.00,CLR,CLR,0.00,WeatherDisplay:10.37,2013-08-30 17:33:00,
2013-08-30 13:38:00,85.1,74.6,30.00,North,0,0.0,0.0,71,0.00,CLR,CLR,0.00,WeatherDisplay:10.37,2013-08-30 17:38:00,
2013-08-30 13:43:00,86.0,75.1,29.97,North,0,0.0,0.0,70,0.00,CLR,CLR,0.00,WeatherDisplay:10.37,2013-08-30 17:43:00,
2013-08-30 13:48:00,86.5,74.7,29.97,North,0,0.0,0.0,68,0.00,CLR,CLR,0.00,WeatherDisplay:10.37,2013-08-30 17:48:00,
2013-08-30 13:53:00,86.2,73.9,29.97,North,0,0.0,0.0,67,0.00,CLR,CLR,0.00,WeatherDisplay:10.37,2013-08-30 17:53:00,
2013-08-30 13:58:00,85.8,73.6,29.97,North,0,0.0,0.0,67,0.00,CLR,CLR,0.00,WeatherDisplay:10.37,2013-08-30 17:58:00,
2013-08-30 14:03:00,86.5,74.3,29.97,North,0,0.0,0.0,67,0.00,CLR,CLR,0.00,WeatherDisplay:10.37,2013-08-30 18:03:00,
2013-08-30 14:08:00,86.9,74.6,29.97,North,0,0.0,0.0,67,0.00,CLR,CLR,0.00,WeatherDisplay:10.37,2013-08-30 18:08:00,
2013-08-30 14:13:00,87.1,74.8,29.97,North,0,0.0,0.0,67,0.00,CLR,CLR,0.00,WeatherDisplay:10.37,2013-08-30 18:13:00,
2013-08-30 14:18:00,86.4,73.7,29.97,North,0,0.0,0.0,66,0.00,CLR,CLR,0.00,WeatherDisplay:10.37,2013-08-30 18:18:00,
2013-08-30 14:23:00,86.7,74.4,29.97,North,0,0.0,0.0,67,0.00,CLR,CLR,0.00,WeatherDisplay:10.37,2013-08-30 18:23:00,
2013-08-30 14:28:00,86.5,73.8,29.97,North,0,0.0,0.0,66,0.00,CLR,CLR,0.00,WeatherDisplay:10.37,2013-08-30 18:28:00,
2013-08-30 14:33:00,86.9,74.2,29.97,North,0,0.0,0.0,66,0.00,CLR,CLR,0.00,WeatherDisplay:10.37,2013-08-30 18:33:00,
2013-08-30 14:38:00,87.1,73.4,29.97,North,0,0.0,0.0,64,0.00,CLR,CLR,0.00,WeatherDisplay:10.37,2013-08-30 18:38:00,
2013-08-30 14:43:00,86.9,73.7,29.97,North,0,0.0,0.0,65,0.00,CLR,CLR,0.00,WeatherDisplay:10.37,2013-08-30 18:43:00,
2013-08-30 14:48:00,86.7,73.5,29.97,North,0,0.0,0.0,65,0.00,CLR,CLR,0.00,WeatherDisplay:10.37,2013-08-30 18:48:00,
2013-08-30 14:53:00,86.5,73.4,29.97,North,0,0.0,0.0,65,0.00,CLR,CLR,0.00,WeatherDisplay:10.37,2013-08-30 18:53:00,
2013-08-30 14:58:00,86.7,74.0,29.97,North,0,0.0,0.0,66,0.00,CLR,CLR,0.00,WeatherDisplay:10.37,2013-08-30 18:58:00,
2013-08-30 15:03:00,86.2,73.0,29.97,North,0,0.0,0.0,65,0.00,CLR,CLR,0.00,WeatherDisplay:10.37,2013-08-30 19:03:00,
2013-08-30 15:08:00,86.4,73.7,29.97,North,0,0.0,0.0,66,0.00,CLR,CLR,0.00,WeatherDisplay:10.37,2013-08-30 19:08:00,
2013-08-30 15:13:00,86.4,73.7,29.97,North,0,0.0,0.0,66,0.00,CLR,CLR,0.00,WeatherDisplay:10.37,2013-08-30 19:13:00,
2013-08-30 15:18:00,85.6,72.5,29.97,North,0,0.0,0.0,65,0.00,CLR,CLR,0.00,WeatherDisplay:10.37,2013-08-30 19:18:00,
2013-08-30 15:23:00,86.0,73.3,29.94,North,0,0.0,0.0,66,0.00,CLR,CLR,0.00,WeatherDisplay:10.37,2013-08-30 19:23:00,
2013-08-30 15:28:00,86.5,73.8,29.94,North,0,0.0,0.0,66,0.00,CLR,CLR,0.00,WeatherDisplay:10.37,2013-08-30 19:28:00,
2013-08-30 15:33:00,85.8,73.1,29.94,North,0,0.0,0.0,66,0.00,CLR,CLR,0.00,WeatherDisplay:10.37,2013-08-30 19:33:00,
2013-08-30 15:38:00,85.6,73.0,29.94,North,0,0.0,0.0,66,0.00,CLR,CLR,0.00,WeatherDisplay:10.37,2013-08-30 19:38:00,
2013-08-30 15:43:00,85.8,73.1,29.94,North,0,0.0,0.0,66,0.00,CLR,CLR,0.00,WeatherDisplay:10.37,2013-08-30 19:43:00,
2013-08-30 15:48:00,85.1,72.5,29.94,North,0,0.0,0.0,66,0.00,CLR,CLR,0.00,WeatherDisplay:10.37,2013-08-30 19:48:00,
2013-08-30 15:53:00,85.6,73.0,29.97,North,0,0.0,0.0,66,0.00,CLR,CLR,0.00,WeatherDisplay:10.37,2013-08-30 19:53:00,
2013-08-30 15:58:00,85.6,73.0,29.97,North,0,0.0,0.0,66,0.00,CLR,CLR,0.00,WeatherDisplay:10.37,2013-08-30 19:58:00,
2013-08-30 16:03:00,85.6,73.0,29.97,North,0,0.0,0.0,66,0.00,CLR,CLR,0.00,WeatherDisplay:10.37,2013-08-30 20:03:00,
2013-08-30 16:08:00,85.1,72.5,29.97,North,0,0.0,0.0,66,0.00,CLR,CLR,0.00,WeatherDisplay:10.37,2013-08-30 20:08:00,
2013-08-30 16:13:00,86.0,72.9,29.97,North,0,0.0,0.0,65,0.00,CLR,CLR,0.00,WeatherDisplay:10.37,2013-08-30 20:13:00,
2013-08-30 16:18:00,85.3,71.7,29.97,North,0,0.0,0.0,64,0.00,CLR,CLR,0.00,WeatherDisplay:10.37,2013-08-30 20:18:00,
2013-08-30 16:23:00,84.9,72.3,29.97,North,0,0.0,0.0,66,0.00,CLR,CLR,0.00,WeatherDisplay:10.37,2013-08-30 20:23:00,
2013-08-30 16:28:00,85.1,72.5,29.97,North,0,0.0,0.0,66,0.00,CLR,CLR,0.00,WeatherDisplay:10.37,2013-08-30 20:28:00,
2013-08-30 16:33:00,85.3,73.1,29.97,North,0,0.0,0.0,67,0.00,CLR,CLR,0.00,WeatherDisplay:10.37,2013-08-30 20:33:00,
2013-08-30 16:38:00,86.0,73.8,29.97,North,0,0.0,0.0,67,0.00,CLR,CLR,0.00,WeatherDisplay:10.37,2013-08-30 20:38:00,
2013-08-30 16:43:00,86.0,73.8,29.94,North,0,0.0,0.0,67,0.00,CLR,CLR,0.00,WeatherDisplay:10.37,2013-08-30 20:43:00,
2013-08-30 16:48:00,86.0,73.3,29.94,North,0,0.0,0.0,66,0.00,CLR,CLR,0.00,WeatherDisplay:10.37,2013-08-30 20:48:00,
2013-08-30 16:53:00,85.8,73.6,29.94,North,0,0.0,0.0,67,0.00,CLR,CLR,0.00,WeatherDisplay:10.37,2013-08-30 20:53:00,
2013-08-30 16:58:00,86.5,73.8,29.94,North,0,0.0,0.0,66,0.00,CLR,CLR,0.00,WeatherDisplay:10.37,2013-08-30 20:58:00,
2013-08-30 17:03:00,86.2,73.0,29.94,North,0,0.0,0.0,65,0.00,CLR,CLR,0.00,WeatherDisplay:10.37,2013-08-30 21:03:00,
2013-08-30 17:08:00,86.4,73.7,29.94,North,0,0.0,0.0,66,0.00,CLR,CLR,0.00,WeatherDisplay:10.37,2013-08-30 21:08:00,
2013-08-30 17:13:00,86.2,73.0,29.94,North,0,0.0,0.0,65,0.00,CLR,CLR,0.00,WeatherDisplay:10.37,2013-08-30 21:13:00,
2013-08-30 17:18:00,86.4,73.2,29.94,North,0,0.0,0.0,65,0.00,CLR,CLR,0.00,WeatherDisplay:10.37,2013-08-30 21:18:00,
2013-08-30 17:23:00,86.0,72.4,29.94,North,0,0.0,0.0,64,0.00,CLR,CLR,0.00,WeatherDisplay:10.37,2013-08-30 21:23:00,
2013-08-30 17:28:00,85.6,72.5,29.94,North,0,0.0,0.0,65,0.00,CLR,CLR,0.00,WeatherDisplay:10.37,2013-08-30 21:28:00,
2013-08-30 17:33:00,85.3,71.7,29.94,North,0,0.0,0.0,64,0.00,CLR,CLR,0.00,WeatherDisplay:10.37,2013-08-30 21:33:00,
2013-08-30 17:38:00,85.3,72.2,29.94,North,0,0.0,0.0,65,0.00,CLR,CLR,0.00,WeatherDisplay:10.37,2013-08-30 21:38:00,
2013-08-30 17:43:00,85.1,72.0,29.94,North,0,0.0,0.0,65,0.00,CLR,CLR,0.00,WeatherDisplay:10.37,2013-08-30 21:43:00,
2013-08-30 17:48:00,85.1,72.0,29.94,North,0,0.0,0.0,65,0.00,CLR,CLR,0.00,WeatherDisplay:10.37,2013-08-30 21:48:00,
2013-08-30 17:53:00,85.1,72.0,29.94,North,0,0.0,0.0,65,0.00,CLR,CLR,0.00,WeatherDisplay:10.37,2013-08-30 21:53:00,
2013-08-30 17:58:00,84.9,71.8,29.94,North,0,0.0,0.0,65,0.00,CLR,CLR,0.00,WeatherDisplay:10.37,2013-08-30 21:58:00,
2013-08-30 18:03:00,84.6,71.9,29.94,North,0,0.0,0.0,66,0.00,CLR,CLR,0.00,WeatherDisplay:10.37,2013-08-30 22:03:00,
2013-08-30 18:08:00,84.7,72.1,29.94,North,0,0.0,0.0,66,0.00,CLR,CLR,0.00,WeatherDisplay:10.37,2013-08-30 22:08:00,
2013-08-30 18:13:00,84.2,71.6,29.94,North,0,0.0,0.0,66,0.00,CLR,CLR,0.00,WeatherDisplay:10.37,2013-08-30 22:13:00,
2013-08-30 18:18:00,83.5,71.4,29.94,North,0,0.0,0.0,67,0.00,CLR,CLR,0.00,WeatherDisplay:10.37,2013-08-30 22:18:00,
2013-08-30 18:23:00,83.1,71.0,29.94,North,0,0.0,0.0,67,0.00,CLR,CLR,0.00,WeatherDisplay:10.37,2013-08-30 22:23:00,
2013-08-30 18:28:00,82.9,70.9,29.94,North,0,0.0,0.0,67,0.00,CLR,CLR,0.00,WeatherDisplay:10.37,2013-08-30 22:28:00,
2013-08-30 18:33:00,82.8,70.7,29.94,North,0,0.0,0.0,67,0.00,CLR,CLR,0.00,WeatherDisplay:10.37,2013-08-30 22:33:00,
2013-08-30 18:38:00,82.4,70.8,29.94,North,0,0.0,0.0,68,0.00,CLR,CLR,0.00,WeatherDisplay:10.37,2013-08-30 22:38:00,
2013-08-30 18:43:00,82.2,71.0,29.94,North,0,0.0,0.0,69,0.00,CLR,CLR,0.00,WeatherDisplay:10.37,2013-08-30 22:43:00,
2013-08-30 18:48:00,82.0,70.9,29.94,North,0,0.0,0.0,69,0.00,CLR,CLR,0.00,WeatherDisplay:10.37,2013-08-30 22:48:00,
2013-08-30 18:53:00,81.7,70.5,29.94,North,0,0.0,0.0,69,0.00,CLR,CLR,0.00,WeatherDisplay:10.37,2013-08-30 22:53:00,
2013-08-30 18:58:00,81.0,70.3,29.94,North,0,0.0,0.0,70,0.00,CLR,CLR,0.00,WeatherDisplay:10.37,2013-08-30 22:58:00,
2013-08-30 19:03:00,80.4,70.2,29.94,North,0,0.0,0.0,71,0.00,CLR,CLR,0.00,WeatherDisplay:10.37,2013-08-30 23:03:00,
2013-08-30 19:08:00,79.5,69.3,29.94,North,0,0.0,0.0,71,0.00,CLR,CLR,0.00,WeatherDisplay:10.37,2013-08-30 23:08:00,
2013-08-30 19:13:00,79.3,69.5,29.94,North,0,0.0,0.0,72,0.00,CLR,CLR,0.00,WeatherDisplay:10.37,2013-08-30 23:13:00,
2013-08-30 19:18:00,79.2,69.4,29.94,North,0,0.0,0.0,72,0.00,CLR,CLR,0.00,WeatherDisplay:10.37,2013-08-30 23:18:00,
2013-08-30 19:23:00,78.8,69.4,29.94,North,0,0.0,0.0,73,0.00,CLR,CLR,0.00,WeatherDisplay:10.37,2013-08-30 23:23:00,
2013-08-30 19:28:00,78.3,69.3,29.94,North,0,0.0,0.0,74,0.00,CLR,CLR,0.00,WeatherDisplay:10.37,2013-08-30 23:28:00,
2013-08-30 19:34:00,77.9,69.3,29.94,North,0,0.0,0.0,75,0.00,CLR,CLR,0.00,WeatherDisplay:10.37,2013-08-30 23:34:00,
2013-08-30 19:39:00,77.4,69.2,29.94,North,0,0.0,0.0,76,0.00,CLR,CLR,0.00,WeatherDisplay:10.37,2013-08-30 23:39:00,
2013-08-30 19:44:00,77.2,69.0,29.94,North,0,0.0,0.0,76,0.00,CLR,CLR,0.00,WeatherDisplay:10.37,2013-08-30 23:44:00,
2013-08-30 19:49:00,77.0,69.2,29.94,North,0,0.0,0.0,77,0.00,CLR,CLR,0.00,WeatherDisplay:10.37,2013-08-30 23:49:00,
2013-08-30 19:54:00,76.6,69.3,29.94,North,0,0.0,0.0,78,0.00,CLR,CLR,0.00,WeatherDisplay:10.37,2013-08-30 23:54:00,
2013-08-30 19:59:00,76.5,69.5,29.94,North,0,0.0,0.0,79,0.00,CLR,CLR,0.00,WeatherDisplay:10.37,2013-08-30 23:59:00,
2013-08-30 20:04:00,76.5,69.5,29.94,North,0,0.0,0.0,79,0.00,CLR,CLR,0.00,WeatherDisplay:10.37,2013-08-31 00:04:00,
2013-08-30 20:09:00,76.3,69.3,29.94,North,0,0.0,0.0,79,0.00,CLR,CLR,0.00,WeatherDisplay:10.37,2013-08-31 00:09:00,
2013-08-30 20:14:00,76.1,69.5,29.94,North,0,0.0,0.0,80,0.00,CLR,CLR,0.00,WeatherDisplay:10.37,2013-08-31 00:14:00,
2013-08-30 20:19:00,76.1,69.5,29.94,North,0,0.0,0.0,80,0.00,CLR,CLR,0.00,WeatherDisplay:10.37,2013-08-31 00:19:00,
2013-08-30 20:24:00,75.7,69.1,29.94,North,0,0.0,0.0,80,0.00,CLR,CLR,0.00,WeatherDisplay:10.37,2013-08-31 00:24:00,
2013-08-30 20:29:00,75.7,69.5,29.94,North,0,0.0,0.0,81,0.00,CLR,CLR,0.00,WeatherDisplay:10.37,2013-08-31 00:29:00,
2013-08-30 20:34:00,75.7,69.5,29.94,North,0,0.0,0.0,81,0.00,CLR,CLR,0.00,WeatherDisplay:10.37,2013-08-31 00:34:00,
2013-08-30 20:39:00,75.6,69.7,29.97,North,0,0.0,0.0,82,0.00,CLR,CLR,0.00,WeatherDisplay:10.37,2013-08-31 00:39:00,
2013-08-30 20:44:00,75.2,69.3,29.97,North,0,0.0,0.0,82,0.00,CLR,CLR,0.00,WeatherDisplay:10.37,2013-08-31 00:44:00,
2013-08-30 20:49:00,74.8,69.3,29.97,North,0,0.0,0.0,83,0.00,CLR,CLR,0.00,WeatherDisplay:10.37,2013-08-31 00:49:00,
2013-08-30 20:54:00,74.8,69.3,29.97,North,0,0.0,0.0,83,0.00,CLR,CLR,0.00,WeatherDisplay:10.37,2013-08-31 00:54:00,
2013-08-30 20:59:00,74.7,69.2,29.97,North,0,0.0,0.0,83,0.00,CLR,CLR,0.00,WeatherDisplay:10.37,2013-08-31 00:59:00,
2013-08-30 21:04:00,74.3,69.1,29.97,North,0,0.0,0.0,84,0.00,CLR,CLR,0.00,WeatherDisplay:10.37,2013-08-31 01:04:00,
2013-08-30 21:09:00,74.1,69.3,29.97,North,0,0.0,0.0,85,0.00,CLR,CLR,0.00,WeatherDisplay:10.37,2013-08-31 01:09:00,
2013-08-30 21:14:00,74.1,69.3,29.97,North,0,0.0,0.0,85,0.00,CLR,CLR,0.00,WeatherDisplay:10.37,2013-08-31 01:14:00,
2013-08-30 21:19:00,73.8,69.3,29.97,North,0,0.0,0.0,86,0.00,CLR,CLR,0.00,WeatherDisplay:10.37,2013-08-31 01:19:00,
2013-08-30 21:24:00,73.4,69.0,29.97,North,0,0.0,0.0,86,0.00,CLR,CLR,0.00,WeatherDisplay:10.37,2013-08-31 01:24:00,
2013-08-30 21:29:00,73.2,69.1,29.97,North,0,0.0,0.0,87,0.00,CLR,CLR,0.00,WeatherDisplay:10.37,2013-08-31 01:29:00,
2013-08-30 21:34:00,73.0,68.9,29.97,North,0,0.0,0.0,87,0.00,CLR,CLR,0.00,WeatherDisplay:10.37,2013-08-31 01:34:00,
2013-08-30 21:39:00,73.0,69.3,29.97,North,0,0.0,0.0,88,0.00,CLR,CLR,0.00,WeatherDisplay:10.37,2013-08-31 01:39:00,
2013-08-30 21:44:00,73.0,68.9,29.97,North,0,0.0,0.0,87,0.00,CLR,CLR,0.00,WeatherDisplay:10.37,2013-08-31 01:44:00,
2013-08-30 21:49:00,72.9,69.4,29.97,North,0,0.0,0.0,89,0.00,CLR,CLR,0.00,WeatherDisplay:10.37,2013-08-31 01:49:00,
2013-08-30 21:54:00,72.7,68.9,29.94,North,0,0.0,0.0,88,0.00,CLR,CLR,0.00,WeatherDisplay:10.37,2013-08-31 01:54:00,
2013-08-30 21:59:00,72.7,68.9,29.94,North,0,0.0,0.0,88,0.00,CLR,CLR,0.00,WeatherDisplay:10.37,2013-08-31 01:59:00,
2013-08-30 22:04:00,72.3,68.6,29.94,North,0,0.0,0.0,88,0.00,CLR,CLR,0.00,WeatherDisplay:10.37,2013-08-31 02:04:00,
2013-08-30 22:09:00,72.0,68.5,29.97,North,0,0.0,0.0,89,0.00,CLR,CLR,0.00,WeatherDisplay:10.37,2013-08-31 02:09:00,
2013-08-30 22:14:00,71.6,68.2,29.97,North,0,0.0,0.0,89,0.00,CLR,CLR,0.00,WeatherDisplay:10.37,2013-08-31 02:14:00,
2013-08-30 22:19:00,71.6,68.2,29.97,North,0,0.0,0.0,89,0.00,CLR,CLR,0.00,WeatherDisplay:10.37,2013-08-31 02:19:00,
2013-08-30 22:24:00,71.6,68.2,29.97,North,0,0.0,0.0,89,0.00,CLR,CLR,0.00,WeatherDisplay:10.37,2013-08-31 02:24:00,
2013-08-30 22:29:00,71.4,68.3,29.97,North,0,0.0,0.0,90,0.00,CLR,CLR,0.00,WeatherDisplay:10.37,2013-08-31 02:29:00,
2013-08-30 22:34:00,71.4,68.3,29.97,North,0,0.0,0.0,90,0.00,CLR,CLR,0.00,WeatherDisplay:10.37,2013-08-31 02:34:00,
2013-08-30 22:39:00,71.4,68.7,29.97,North,0,0.0,0.0,91,0.00,CLR,CLR,0.00,WeatherDisplay:10.37,2013-08-31 02:39:00,
2013-08-30 22:44:00,71.4,68.7,29.97,North,0,0.0,0.0,91,0.00,CLR,CLR,0.00,WeatherDisplay:10.37,2013-08-31 02:44:00,
2013-08-30 22:49:00,71.4,68.7,29.97,North,0,0.0,0.0,91,0.00,CLR,CLR,0.00,WeatherDisplay:10.37,2013-08-31 02:49:00,
2013-08-30 22:54:00,71.2,68.5,29.97,North,0,0.0,0.0,91,0.00,CLR,CLR,0.00,WeatherDisplay:10.37,2013-08-31 02:54:00,
2013-08-30 22:59:00,70.9,68.4,29.97,North,0,0.0,0.0,92,0.00,CLR,CLR,0.00,WeatherDisplay:10.37,2013-08-31 02:59:00,
2013-08-30 23:04:00,71.1,68.6,29.97,North,0,0.0,0.0,92,0.00,CLR,CLR,0.00,WeatherDisplay:10.37,2013-08-31 03:04:00,
2013-08-30 23:09:00,71.1,68.3,29.94,North,0,0.0,0.0,91,0.00,CLR,CLR,0.00,WeatherDisplay:10.37,2013-08-31 03:09:00,
2013-08-30 23:14:00,71.1,68.3,29.94,North,0,0.0,0.0,91,0.00,CLR,CLR,0.00,WeatherDisplay:10.37,2013-08-31 03:14:00,
2013-08-30 23:19:00,70.9,68.1,29.94,North,0,0.0,0.0,91,0.00,CLR,CLR,0.00,WeatherDisplay:10.37,2013-08-31 03:19:00,
2013-08-30 23:24:00,70.7,67.9,29.94,North,0,0.0,0.0,91,0.00,CLR,CLR,0.00,WeatherDisplay:10.37,2013-08-31 03:24:00,
2013-08-30 23:29:00,70.5,67.8,29.94,North,0,0.0,0.0,91,0.00,CLR,CLR,0.00,WeatherDisplay:10.37,2013-08-31 03:29:00,
2013-08-30 23:34:00,70.3,67.9,29.94,North,0,0.0,0.0,92,0.00,CLR,CLR,0.00,WeatherDisplay:10.37,2013-08-31 03:34:00,
2013-08-30 23:39:00,70.3,67.9,29.94,North,0,0.0,0.0,92,0.00,CLR,CLR,0.00,WeatherDisplay:10.37,2013-08-31 03:39:00,
2013-08-30 23:44:00,70.5,68.1,29.94,North,0,0.0,0.0,92,0.00,CLR,CLR,0.00,WeatherDisplay:10.37,2013-08-31 03:44:00,
2013-08-30 23:49:00,70.3,68.2,29.94,North,0,0.0,0.0,93,0.00,CLR,CLR,0.00,WeatherDisplay:10.37,2013-08-31 03:49:00,
2013-08-30 23:54:00,70.3,68.2,29.94,North,0,0.0,0.0,93,0.00,CLR,CLR,0.00,WeatherDisplay:10.37,2013-08-31 03:54:00,
2013-08-30 23:59:00,70.2,68.4,29.94,North,0,0.0,0.0,94,0.00,CLR,CLR,0.00,WeatherDisplay:10.37,2013-08-31 03:59:00,